createdAt,value
2023-05-15T00:01:02.638Z,101490.72
2023-05-15T00:06:06.124Z,101497.47
2023-05-15T00:11:07.922Z,101487.13
2023-05-15T00:16:09.702Z,101486.59
2023-05-15T00:21:12.674Z,101478.53
2023-05-15T00:26:16.004Z,101468.31
2023-05-15T00:31:17.700Z,101467.47
2023-05-15T00:36:21.666Z,101460.59
2023-05-15T00:41:28.786Z,101462.16
2023-05-15T00:46:32.083Z,101465.25
2023-05-15T00:51:33.697Z,101463.19
2023-05-15T00:56:35.509Z,101455.41
2023-05-15T01:01:37.387Z,101444.38
2023-05-15T01:06:39.196Z,101445.22
2023-05-15T01:11:42.634Z,101454.72
2023-05-15T01:16:47.112Z,101446.09
2023-05-15T01:22:10.267Z,101439.56
2023-05-15T01:27:35.704Z,101435.28
2023-05-15T01:32:52.394Z,101425.09
2023-05-15T01:38:16.821Z,101429.78
2023-05-15T01:43:24.319Z,101435.31
2023-05-15T01:48:28.478Z,101432.19
2023-05-15T01:53:34.757Z,101442.38
2023-05-15T01:58:38.974Z,101453.59
2023-05-15T02:03:42.443Z,101457.91
2023-05-15T02:08:46.640Z,101462.06
2023-05-15T02:13:49.520Z,101446.91
2023-05-15T02:18:52.734Z,101439.31
2023-05-15T02:23:54.911Z,101438.63
2023-05-15T02:29:12.558Z,101423.13
2023-05-15T02:34:48.438Z,101420.88
2023-05-15T02:39:54.401Z,101406.75
2023-05-15T02:44:58.598Z,101404.53
2023-05-15T02:50:00.633Z,101410.75
2023-05-15T02:55:02.296Z,101418.84
2023-05-15T03:00:07.431Z,101427.31
2023-05-15T03:05:10.145Z,101421.28
2023-05-15T03:10:11.941Z,101420.41
2023-05-15T03:15:13.562Z,101427.13
2023-05-15T03:20:15.375Z,101426.97
2023-05-15T03:25:17.256Z,101428.69
2023-05-15T03:30:18.962Z,101423.84
2023-05-15T03:35:20.597Z,101436.63
2023-05-15T03:40:22.184Z,101428.00
2023-05-15T03:45:24.199Z,101427.47
2023-05-15T03:50:26.024Z,101423.69
2023-05-15T03:55:27.834Z,101426.63
2023-05-15T04:00:29.584Z,101421.81
2023-05-15T04:05:31.237Z,101399.91
2023-05-15T04:10:33.738Z,101414.22
2023-05-15T04:15:35.657Z,101421.97
2023-05-15T04:20:37.402Z,101412.34
2023-05-15T04:25:39.685Z,101423.16
2023-05-15T04:30:41.705Z,101431.78
2023-05-15T04:35:43.560Z,101415.22
2023-05-15T04:40:46.856Z,101409.72
2023-05-15T04:45:49.017Z,101410.06
2023-05-15T04:50:51.433Z,101413.81
2023-05-15T04:55:53.715Z,101418.13
2023-05-15T05:00:55.533Z,101413.84
2023-05-15T05:05:57.154Z,101410.41
2023-05-15T05:10:58.811Z,101410.53
2023-05-15T05:16:00.532Z,101398.47
2023-05-15T05:21:03.645Z,101397.56
2023-05-15T05:26:06.215Z,101397.69
2023-05-15T05:31:08.201Z,101398.88
2023-05-15T05:36:09.990Z,101407.13
2023-05-15T05:41:11.655Z,101392.97
2023-05-15T05:46:13.425Z,101391.97
2023-05-15T05:51:20.035Z,101388.13
2023-05-15T05:56:22.704Z,101383.25
2023-05-15T06:01:24.444Z,101375.81
2023-05-15T06:06:26.046Z,101384.00
2023-05-15T06:11:27.720Z,101392.16
2023-05-15T06:16:29.415Z,101393.63
2023-05-15T06:21:31.290Z,101387.56
2023-05-15T06:26:32.964Z,101393.06
2023-05-15T06:31:34.668Z,101388.22
2023-05-15T06:36:37.223Z,101398.94
2023-05-15T06:41:38.819Z,101398.09
2023-05-15T06:46:46.879Z,101392.53
2023-05-15T06:51:48.578Z,101398.25
2023-05-15T06:56:50.356Z,101392.47
2023-05-15T07:01:52.074Z,101400.94
2023-05-15T07:06:53.687Z,101404.88
2023-05-15T07:11:55.301Z,101409.16
2023-05-15T07:16:57.011Z,101409.22
2023-05-15T07:21:58.670Z,101411.38
2023-05-15T07:27:00.394Z,101407.19
2023-05-15T07:32:02.089Z,101403.88
2023-05-15T07:37:03.884Z,101414.44
2023-05-15T07:42:05.840Z,101412.75
2023-05-15T07:47:07.736Z,101404.47
2023-05-15T07:52:09.307Z,101416.16
2023-05-15T07:57:11.048Z,101405.38
2023-05-15T08:02:12.750Z,101418.97
2023-05-15T08:07:15.199Z,101425.06
2023-05-15T08:12:17.728Z,101428.69
2023-05-15T08:17:20.749Z,101419.22
2023-05-15T08:22:22.614Z,101419.44
2023-05-15T08:27:24.250Z,101417.53
2023-05-15T08:32:26.833Z,101416.16
2023-05-15T08:37:28.552Z,101414.38
2023-05-15T08:42:43.006Z,101411.94
2023-05-15T08:47:45.058Z,101417.09
2023-05-15T08:52:47.873Z,101420.09
2023-05-15T08:57:50.552Z,101417.41
2023-05-15T09:02:54.528Z,101423.66
2023-05-15T09:07:58.869Z,101424.41
2023-05-15T09:13:02.442Z,101421.81
2023-05-15T09:18:04.458Z,101436.91
2023-05-15T09:23:22.171Z,101436.44
2023-05-15T09:28:31.590Z,101435.44
2023-05-15T09:33:35.640Z,101443.06
2023-05-15T09:38:42.908Z,101433.19
2023-05-15T09:43:46.161Z,101426.72
2023-05-15T09:48:47.954Z,101437.03
2023-05-15T09:53:52.041Z,101432.22
2023-05-15T09:59:00.888Z,101432.28
2023-05-15T10:04:06.539Z,101444.94
2023-05-15T10:09:08.655Z,101439.38
2023-05-15T10:14:13.179Z,101448.03
2023-05-15T10:19:17.220Z,101438.00
2023-05-15T10:24:21.693Z,101440.16
2023-05-15T10:29:25.678Z,101446.56
2023-05-15T10:34:28.912Z,101434.53
2023-05-15T10:39:30.968Z,101447.09
2023-05-15T10:44:32.584Z,101450.06
2023-05-15T10:49:35.756Z,101447.84
2023-05-15T10:54:37.500Z,101440.63
2023-05-15T10:59:41.495Z,101441.34
2023-05-15T11:04:46.904Z,101437.47
2023-05-15T11:09:48.577Z,101449.72
2023-05-15T11:14:55.864Z,101448.25
2023-05-15T11:19:58.586Z,101453.16
2023-05-15T11:25:01.629Z,101457.19
2023-05-15T11:30:22.936Z,101450.16
2023-05-15T11:36:00.711Z,101454.75
2023-05-15T11:41:03.572Z,101456.59
2023-05-15T11:46:07.936Z,101446.59
2023-05-15T11:51:26.371Z,101447.44
2023-05-15T11:56:30.827Z,101445.81
2023-05-15T12:01:43.199Z,101453.44
2023-05-15T12:06:49.861Z,101452.03
2023-05-15T12:11:55.959Z,101445.16
2023-05-15T12:17:07.238Z,101453.16
2023-05-15T12:22:09.137Z,101453.47
2023-05-15T12:27:12.936Z,101457.34
2023-05-15T12:32:17.219Z,101456.25
2023-05-15T12:37:23.249Z,101455.41
2023-05-15T12:42:25.215Z,101462.31
2023-05-15T12:47:29.221Z,101462.25
2023-05-15T12:52:31.439Z,101464.81
2023-05-15T12:57:34.045Z,101473.88
2023-05-15T13:02:36.930Z,101469.38
2023-05-15T13:07:43.902Z,101484.28
2023-05-15T13:12:46.547Z,101472.94
2023-05-15T13:17:48.373Z,101476.88
2023-05-15T13:22:50.067Z,101472.38
2023-05-15T13:27:51.763Z,101485.59
2023-05-15T13:32:55.513Z,101480.66
2023-05-15T13:37:57.548Z,101490.72
2023-05-15T13:42:59.256Z,101479.66
2023-05-15T13:48:00.967Z,101492.06
2023-05-15T13:53:02.653Z,101487.78
2023-05-15T13:58:04.253Z,101491.63
2023-05-15T14:03:06.481Z,101485.41
2023-05-15T14:08:08.205Z,101489.91
2023-05-15T14:13:10.209Z,101481.22
2023-05-15T14:18:13.325Z,101482.00
2023-05-15T14:23:16.924Z,101489.31
2023-05-15T14:28:19.250Z,101482.56
2023-05-15T14:33:21.012Z,101493.56
2023-05-15T14:38:22.739Z,101496.50
2023-05-15T14:43:25.049Z,101507.00
2023-05-15T14:48:26.738Z,101496.47
2023-05-15T14:53:28.362Z,101490.13
2023-05-15T14:58:30.646Z,101505.00
2023-05-15T15:03:34.028Z,101503.28
2023-05-15T15:08:36.178Z,101498.25
2023-05-15T15:13:37.947Z,101500.34
2023-05-15T15:18:39.523Z,101501.38
2023-05-15T15:23:41.124Z,101511.69
2023-05-15T15:28:42.719Z,101512.25
2023-05-15T15:33:46.611Z,101522.66
2023-05-15T15:38:48.983Z,101516.19
2023-05-15T15:43:50.707Z,101508.94
2023-05-15T15:48:52.326Z,101518.84
2023-05-15T15:53:54.039Z,101537.16
2023-05-15T15:58:55.610Z,101520.81
2023-05-15T16:03:57.373Z,101541.34
2023-05-15T16:08:59.817Z,101541.34
2023-05-15T16:14:01.436Z,101543.44
2023-05-15T16:19:03.224Z,101554.66
2023-05-15T16:24:05.407Z,101563.16
2023-05-15T16:29:07.154Z,101569.91
2023-05-15T16:34:09.300Z,101566.91
2023-05-15T16:39:11.209Z,101564.84
2023-05-15T16:44:12.873Z,101572.00
2023-05-15T16:49:16.584Z,101579.84
2023-05-15T16:54:18.370Z,101578.16
2023-05-15T16:59:19.971Z,101588.41
2023-05-15T17:04:21.630Z,101588.09
2023-05-15T17:09:23.251Z,101588.88
2023-05-15T17:14:25.023Z,101604.28
2023-05-15T17:19:26.664Z,101611.66
2023-05-15T17:24:35.576Z,101610.88
2023-05-15T17:29:40.908Z,101625.25
2023-05-15T17:34:43.456Z,101619.84
2023-05-15T17:39:45.783Z,101621.50
2023-05-15T17:44:47.822Z,101637.88
2023-05-15T17:49:49.548Z,101640.78
2023-05-15T17:54:51.273Z,101645.97
2023-05-15T17:59:52.988Z,101648.63
2023-05-15T18:04:54.706Z,101661.38
2023-05-15T18:09:56.416Z,101663.22
2023-05-15T18:14:58.060Z,101663.56
2023-05-15T18:19:59.795Z,101670.75
2023-05-15T18:25:02.062Z,101682.84
2023-05-15T18:30:04.633Z,101683.59
2023-05-15T18:35:06.804Z,101693.66
2023-05-15T18:40:09.577Z,101697.28
2023-05-15T18:45:13.141Z,101694.81
2023-05-15T18:50:16.124Z,101707.00
2023-05-15T18:55:17.990Z,101706.00
2023-05-15T19:00:36.490Z,101717.50
2023-05-15T19:05:39.363Z,101724.97
2023-05-15T19:10:50.552Z,101728.81
2023-05-15T19:15:52.935Z,101742.31
2023-05-15T19:20:54.571Z,101745.03
2023-05-15T19:25:56.205Z,101761.97
2023-05-15T19:30:57.951Z,101761.78
2023-05-15T19:35:59.632Z,101769.47
2023-05-15T19:41:01.393Z,101769.81
2023-05-15T19:46:03.536Z,101782.19
2023-05-15T19:51:05.307Z,101774.84
2023-05-15T19:56:07.353Z,101783.06
2023-05-15T20:01:09.108Z,101787.38
2023-05-15T20:06:12.249Z,101784.56
2023-05-15T20:11:13.859Z,101801.75
2023-05-15T20:16:17.032Z,101813.97
2023-05-15T20:21:18.667Z,101810.63
2023-05-15T20:26:22.346Z,101822.00
2023-05-15T20:31:24.069Z,101826.06
2023-05-15T20:36:26.193Z,101828.63
2023-05-15T20:41:27.848Z,101831.25
2023-05-15T20:46:30.668Z,101841.47
2023-05-15T20:51:33.121Z,101842.53
2023-05-15T20:56:34.728Z,101835.50
2023-05-15T21:01:36.761Z,101847.81
2023-05-15T21:06:38.488Z,101847.63
2023-05-15T21:11:40.082Z,101856.63
2023-05-15T21:16:42.230Z,101863.25
2023-05-15T21:21:43.822Z,101866.94
2023-05-15T21:26:47.015Z,101865.63
2023-05-15T21:31:48.772Z,101869.09
2023-05-15T21:36:50.523Z,101870.47
2023-05-15T21:41:52.480Z,101876.00
2023-05-15T21:46:54.116Z,101879.75
2023-05-15T21:51:56.153Z,101883.31
2023-05-15T21:56:58.535Z,101887.88
2023-05-15T22:02:00.206Z,101889.28
2023-05-15T22:07:01.933Z,101889.16
2023-05-15T22:12:03.768Z,101889.13
2023-05-15T22:17:05.663Z,101894.53
2023-05-15T22:22:07.562Z,101885.47
2023-05-15T22:27:09.178Z,101897.41
2023-05-15T22:32:10.894Z,101898.31
2023-05-15T22:37:13.096Z,101896.78
2023-05-15T22:42:15.131Z,101898.06
2023-05-15T22:47:16.831Z,101905.13
2023-05-15T22:52:18.763Z,101910.72
2023-05-15T22:57:20.524Z,101910.78
2023-05-15T23:02:22.217Z,101916.72
2023-05-15T23:07:28.735Z,101927.88
2023-05-15T23:12:30.916Z,101933.16
2023-05-15T23:17:32.535Z,101924.19
2023-05-15T23:22:34.348Z,101933.94
2023-05-15T23:27:38.217Z,101925.50
2023-05-15T23:32:39.980Z,101924.91
2023-05-15T23:37:41.792Z,101910.41
2023-05-15T23:42:43.423Z,101913.63
2023-05-15T23:47:46.958Z,101913.78
2023-05-15T23:52:48.649Z,101911.19
2023-05-15T23:57:50.780Z,101921.66
